This is the latest recevied weather packets stored in our database for station/object KC3WWU. If no packets are shown the sender has not sent any weather packets the latest 10 day(s).
| Time | Temp. | Humidity | Pressure | Rain* | Wind** | Luminosity | Snow |
|---|---|---|---|---|---|---|---|
| 1777903021 | 13.33° C | 56% | 1009.6 hPa | 0 mm | - | 415 W/m² | - |
| 1777902717 | 12.78° C | 57% | 1009.6 hPa | 0 mm | - | 381 W/m² | - |
| 1777902415 | 12.78° C | 56% | 1009.7 hPa | 0 mm | - | 206 W/m² | - |
| 1777902111 | 12.22° C | 58% | 1009.5 hPa | 0 mm | - | 178 W/m² | - |
| 1777901810 | 12.78° C | 59% | 1009.7 hPa | 0 mm | - | 194 W/m² | - |
| 1777901507 | 12.78° C | 57% | 1009.9 hPa | 0 mm | - | 148 W/m² | - |
| 1777901204 | 12.22° C | 57% | 1009.4 hPa | 0 mm | - | 454 W/m² | - |
| 1777900901 | 12.22° C | 57% | 1009.8 hPa | 0 mm | - | 296 W/m² | - |
| 1777900599 | 12.22° C | 58% | 1009.6 hPa | 0 mm | - | 312 W/m² | - |
| 1777900296 | 11.67° C | 58% | 1009.6 hPa | 0 mm | - | 303 W/m² | - |
| 1777899992 | 10.56° C | 61% | 1009.9 hPa | 0 mm | - | 210 W/m² | - |
| 1777899689 | 10.56° C | 61% | 1009.7 hPa | 0 mm | - | 110 W/m² | - |
| 1777899386 | 10.56° C | 61% | 1009.8 hPa | 0 mm | - | 99 W/m² | - |
| 1777899084 | 10.56° C | 59% | 1009.5 hPa | 0 mm | - | 239 W/m² | - |
| 1777898781 | 9.44° C | 62% | 1009.8 hPa | 0 mm | - | 122 W/m² | - |
| 1777898479 | 9.44° C | 62% | 1009.9 hPa | 0 mm | - | 94 W/m² | - |
| 1777898176 | 9.44° C | 61% | 1009.9 hPa | 0 mm | - | 62 W/m² | - |
| 1777897873 | 8.89° C | 62% | 1009.9 hPa | 0 mm | - | 123 W/m² | - |
| 1777897569 | 8.89° C | 64% | 1010 hPa | 0 mm | - | 87 W/m² | - |
| 1777897265 | 8.33° C | 64% | 1009.9 hPa | 0 mm | - | 123 W/m² | - |
| 1777896961 | 8.89° C | 65% | 1010 hPa | 0 mm | - | 56 W/m² | - |
| 1777896658 | 8.89° C | 63% | 1010 hPa | 0 mm | - | 69 W/m² | - |
| 1777896355 | 8.89° C | 63% | 1009.9 hPa | 0 mm | - | 86 W/m² | - |
| 1777896053 | 8.33° C | 63% | 1009.6 hPa | 0 mm | - | 93 W/m² | - |
| 1777895751 | 7.78° C | 67% | 1009.7 hPa | 0 mm | - | 66 W/m² | - |
* Rain latest hour (hover to see other rain measurements)
** Current wind speed in m/s (hover to see current wind gust speed)